Deering, Missouri
Current Conditions -  °F | °C
As of 5:53 AM on Sunday 25 Jan 2015 (Local Time) from KHKA Reporting Station
Clear Clear  
Wind Chill: 35°   Ceiling: Unl
Heat Index: 42°   Visibility: 10mi
Dew Point: 35°   Wind: 14mph
Humidity: 76%   Direction: 200°SSW
Pressure: 29.74"   Gusts: NA
Location:  36.19°N, 89.88°W
Report Text: KHKA 251153Z AUTO 20012KT 10SM CLR 06/02 A2974 RMK AO2 SLP073 T00560017 10056 20039 58020
Loading
Personal Weather Stations






























Interactive Weather Map New forecast layout! Learn more

10-Day Weather Forecast

Advertisements
Track Severe Weather on mobile